sensor_id;sensor_type;location;lat;lon;timestamp;pressure;altitude;pressure_sealevel;temperature;humidity
19600;BME280;9947;57.722;12.012;2023-07-09T00:02:13;101766.28;;;12.77;100.00
19600;BME280;9947;57.722;12.012;2023-07-09T00:07:15;101778.50;;;12.70;100.00
19600;BME280;9947;57.722;12.012;2023-07-09T00:09:46;101781.88;;;12.73;100.00
19600;BME280;9947;57.722;12.012;2023-07-09T00:12:14;101784.91;;;12.69;100.00
19600;BME280;9947;57.722;12.012;2023-07-09T00:14:44;101787.19;;;12.62;100.00
19600;BME280;9947;57.722;12.012;2023-07-09T00:17:25;101779.69;;;12.53;100.00
19600;BME280;9947;57.722;12.012;2023-07-09T00:19:53;101789.41;;;12.43;100.00
19600;BME280;9947;57.722;12.012;2023-07-09T00:22:20;101783.97;;;12.43;100.00
19600;BME280;9947;57.722;12.012;2023-07-09T00:24:50;101788.75;;;12.39;100.00
19600;BME280;9947;57.722;12.012;2023-07-09T00:27:18;101782.00;;;12.32;100.00
19600;BME280;9947;57.722;12.012;2023-07-09T00:29:46;101779.50;;;12.29;100.00
19600;BME280;9947;57.722;12.012;2023-07-09T00:32:14;101779.72;;;12.26;100.00
19600;BME280;9947;57.722;12.012;2023-07-09T00:34:42;101775.38;;;12.23;100.00
19600;BME280;9947;57.722;12.012;2023-07-09T00:37:15;101778.16;;;12.22;100.00
19600;BME280;9947;57.722;12.012;2023-07-09T00:39:43;101780.84;;;12.22;100.00
19600;BME280;9947;57.722;12.012;2023-07-09T00:42:14;101770.84;;;12.10;100.00
19600;BME280;9947;57.722;12.012;2023-07-09T00:44:44;101784.19;;;12.13;100.00
19600;BME280;9947;57.722;12.012;2023-07-09T00:47:25;101787.13;;;12.10;100.00
19600;BME280;9947;57.722;12.012;2023-07-09T00:50:15;101776.91;;;12.00;100.00
19600;BME280;9947;57.722;12.012;2023-07-09T00:52:51;101784.16;;;12.00;100.00
19600;BME280;9947;57.722;12.012;2023-07-09T00:55:23;101784.53;;;11.94;100.00
19600;BME280;9947;57.722;12.012;2023-07-09T00:57:56;101778.25;;;11.93;100.00
19600;BME280;9947;57.722;12.012;2023-07-09T01:00:30;101774.47;;;11.96;100.00
19600;BME280;9947;57.722;12.012;2023-07-09T01:03:29;101770.88;;;11.95;100.00
19600;BME280;9947;57.722;12.012;2023-07-09T01:05:59;101775.31;;;11.96;100.00
19600;BME280;9947;57.722;12.012;2023-07-09T01:08:26;101781.94;;;11.92;100.00
19600;BME280;9947;57.722;12.012;2023-07-09T01:10:57;101779.22;;;11.92;100.00
19600;BME280;9947;57.722;12.012;2023-07-09T01:13:26;101779.41;;;11.89;100.00
19600;BME280;9947;57.722;12.012;2023-07-09T01:15:55;101777.88;;;11.85;100.00
19600;BME280;9947;57.722;12.012;2023-07-09T01:18:25;101776.25;;;11.83;100.00
19600;BME280;9947;57.722;12.012;2023-07-09T01:21:07;101777.44;;;11.79;100.00
19600;BME280;9947;57.722;12.012;2023-07-09T01:23:41;101785.94;;;11.72;100.00
19600;BME280;9947;57.722;12.012;2023-07-09T01:26:11;101777.09;;;11.69;100.00
19600;BME280;9947;57.722;12.012;2023-07-09T01:31:04;101777.59;;;11.76;100.00
19600;BME280;9947;57.722;12.012;2023-07-09T01:33:43;101783.22;;;11.72;100.00
19600;BME280;9947;57.722;12.012;2023-07-09T01:36:25;101779.25;;;11.64;100.00
19600;BME280;9947;57.722;12.012;2023-07-09T01:38:57;101781.19;;;11.62;100.00
19600;BME280;9947;57.722;12.012;2023-07-09T01:41:28;101781.50;;;11.57;100.00
19600;BME280;9947;57.722;12.012;2023-07-09T01:43:57;101785.56;;;11.50;100.00
19600;BME280;9947;57.722;12.012;2023-07-09T01:46:25;101784.50;;;11.53;100.00
19600;BME280;9947;57.722;12.012;2023-07-09T01:48:53;101781.38;;;11.44;100.00
19600;BME280;9947;57.722;12.012;2023-07-09T01:51:21;101782.66;;;11.39;100.00
19600;BME280;9947;57.722;12.012;2023-07-09T01:53:50;101785.34;;;11.39;100.00
19600;BME280;9947;57.722;12.012;2023-07-09T01:56:19;101786.53;;;11.35;100.00
19600;BME280;9947;57.722;12.012;2023-07-09T01:58:46;101787.03;;;11.27;100.00
19600;BME280;9947;57.722;12.012;2023-07-09T02:01:15;101788.09;;;11.25;100.00
19600;BME280;9947;57.722;12.012;2023-07-09T02:03:45;101785.84;;;11.17;100.00
19600;BME280;9947;57.722;12.012;2023-07-09T02:06:14;101794.16;;;11.14;100.00
19600;BME280;9947;57.722;12.012;2023-07-09T02:08:46;101797.81;;;11.13;100.00
19600;BME280;9947;57.722;12.012;2023-07-09T02:11:14;101793.47;;;11.10;100.00
19600;BME280;9947;57.722;12.012;2023-07-09T02:13:43;101797.06;;;11.11;100.00
19600;BME280;9947;57.722;12.012;2023-07-09T02:16:09;101799.75;;;11.11;100.00
19600;BME280;9947;57.722;12.012;2023-07-09T02:18:44;101798.97;;;11.09;100.00
19600;BME280;9947;57.722;12.012;2023-07-09T02:21:14;101796.19;;;11.10;100.00
19600;BME280;9947;57.722;12.012;2023-07-09T02:26:08;101792.03;;;11.05;100.00
19600;BME280;9947;57.722;12.012;2023-07-09T02:31:23;101792.22;;;11.02;100.00
19600;BME280;9947;57.722;12.012;2023-07-09T02:39:05;101793.72;;;10.92;100.00
19600;BME280;9947;57.722;12.012;2023-07-09T02:41:41;101791.03;;;10.92;100.00
19600;BME280;9947;57.722;12.012;2023-07-09T02:44:08;101797.88;;;10.83;100.00
19600;BME280;9947;57.722;12.012;2023-07-09T02:49:04;101797.41;;;10.91;100.00
19600;BME280;9947;57.722;12.012;2023-07-09T02:51:39;101795.31;;;10.96;100.00
19600;BME280;9947;57.722;12.012;2023-07-09T02:54:06;101794.84;;;11.03;100.00
19600;BME280;9947;57.722;12.012;2023-07-09T02:59:00;101794.34;;;11.11;100.00
19600;BME280;9947;57.722;12.012;2023-07-09T03:01:28;101797.34;;;11.06;100.00
19600;BME280;9947;57.722;12.012;2023-07-09T03:03:56;101803.63;;;11.07;100.00
19600;BME280;9947;57.722;12.012;2023-07-09T03:06:25;101802.56;;;11.09;100.00
19600;BME280;9947;57.722;12.012;2023-07-09T03:08:59;101798.13;;;11.08;100.00
19600;BME280;9947;57.722;12.012;2023-07-09T03:14:03;101798.69;;;11.13;100.00
19600;BME280;9947;57.722;12.012;2023-07-09T03:16:37;101795.44;;;11.23;100.00
19600;BME280;9947;57.722;12.012;2023-07-09T03:19:04;101797.44;;;11.33;100.00
19600;BME280;9947;57.722;12.012;2023-07-09T03:23:57;101806.16;;;11.38;100.00
19600;BME280;9947;57.722;12.012;2023-07-09T03:26:24;101806.06;;;11.54;100.00
19600;BME280;9947;57.722;12.012;2023-07-09T03:28:53;101809.25;;;11.61;100.00
19600;BME280;9947;57.722;12.012;2023-07-09T03:31:22;101806.91;;;11.69;100.00
19600;BME280;9947;57.722;12.012;2023-07-09T03:33:51;101802.75;;;11.78;100.00
19600;BME280;9947;57.722;12.012;2023-07-09T03:36:19;101803.44;;;11.81;100.00
19600;BME280;9947;57.722;12.012;2023-07-09T03:38:46;101801.09;;;11.75;100.00
19600;BME280;9947;57.722;12.012;2023-07-09T03:41:14;101813.59;;;11.78;100.00
19600;BME280;9947;57.722;12.012;2023-07-09T03:46:10;101805.88;;;12.13;100.00
19600;BME280;9947;57.722;12.012;2023-07-09T03:48:42;101812.50;;;12.48;100.00
19600;BME280;9947;57.722;12.012;2023-07-09T03:51:10;101814.53;;;12.72;100.00
19600;BME280;9947;57.722;12.012;2023-07-09T03:53:44;101818.38;;;12.82;100.00
19600;BME280;9947;57.722;12.012;2023-07-09T03:56:11;101812.66;;;12.59;100.00
19600;BME280;9947;57.722;12.012;2023-07-09T03:58:38;101814.84;;;12.67;100.00
19600;BME280;9947;57.722;12.012;2023-07-09T04:01:07;101809.53;;;12.65;100.00
19600;BME280;9947;57.722;12.012;2023-07-09T04:06:02;101818.97;;;12.60;100.00
19600;BME280;9947;57.722;12.012;2023-07-09T04:10:59;101815.75;;;12.80;100.00
19600;BME280;9947;57.722;12.012;2023-07-09T04:13:29;101818.69;;;12.77;100.00
19600;BME280;9947;57.722;12.012;2023-07-09T04:15:57;101808.78;;;12.63;100.00
19600;BME280;9947;57.722;12.012;2023-07-09T04:18:24;101813.25;;;12.77;100.00
19600;BME280;9947;57.722;12.012;2023-07-09T04:20:54;101814.69;;;12.95;100.00
19600;BME280;9947;57.722;12.012;2023-07-09T04:23:23;101816.81;;;13.17;100.00
19600;BME280;9947;57.722;12.012;2023-07-09T04:25:52;101818.97;;;13.38;100.00
19600;BME280;9947;57.722;12.012;2023-07-09T04:28:21;101818.22;;;13.36;100.00
19600;BME280;9947;57.722;12.012;2023-07-09T04:30:50;101822.78;;;13.35;100.00
19600;BME280;9947;57.722;12.012;2023-07-09T04:33:19;101806.81;;;13.31;100.00
19600;BME280;9947;57.722;12.012;2023-07-09T04:35:46;101815.50;;;13.36;100.00
19600;BME280;9947;57.722;12.012;2023-07-09T04:38:16;101817.78;;;13.42;100.00
19600;BME280;9947;57.722;12.012;2023-07-09T04:40:46;101814.69;;;13.72;100.00
19600;BME280;9947;57.722;12.012;2023-07-09T04:43:13;101808.78;;;14.51;100.00
19600;BME280;9947;57.722;12.012;2023-07-09T04:45:40;101816.38;;;15.73;100.00
19600;BME280;9947;57.722;12.012;2023-07-09T04:48:08;101813.81;;;16.58;100.00
19600;BME280;9947;57.722;12.012;2023-07-09T04:50:39;101814.16;;;17.69;100.00
19600;BME280;9947;57.722;12.012;2023-07-09T04:53:07;101813.63;;;18.25;100.00
19600;BME280;9947;57.722;12.012;2023-07-09T04:55:40;101815.69;;;17.32;100.00
19600;BME280;9947;57.722;12.012;2023-07-09T04:58:09;101818.03;;;17.97;100.00
19600;BME280;9947;57.722;12.012;2023-07-09T05:00:36;101814.38;;;17.05;100.00
19600;BME280;9947;57.722;12.012;2023-07-09T05:03:03;101820.03;;;17.95;100.00
19600;BME280;9947;57.722;12.012;2023-07-09T05:07:55;101821.66;;;18.17;100.00
19600;BME280;9947;57.722;12.012;2023-07-09T05:10:24;101817.19;;;18.06;100.00
19600;BME280;9947;57.722;12.012;2023-07-09T05:12:52;101815.56;;;18.92;100.00
19600;BME280;9947;57.722;12.012;2023-07-09T05:15:22;101822.06;;;19.48;100.00
19600;BME280;9947;57.722;12.012;2023-07-09T05:17:50;101813.50;;;20.25;99.18
19600;BME280;9947;57.722;12.012;2023-07-09T05:20:17;101823.25;;;19.92;98.00
19600;BME280;9947;57.722;12.012;2023-07-09T05:22:44;101821.16;;;21.02;92.17
19600;BME280;9947;57.722;12.012;2023-07-09T05:25:11;101819.44;;;21.01;89.00
19600;BME280;9947;57.722;12.012;2023-07-09T05:30:04;101834.53;;;20.16;96.92
19600;BME280;9947;57.722;12.012;2023-07-09T05:34:58;101838.22;;;22.09;82.00
19600;BME280;9947;57.722;12.012;2023-07-09T05:37:24;101835.22;;;21.61;81.28
19600;BME280;9947;57.722;12.012;2023-07-09T05:39:51;101829.66;;;22.12;80.98
19600;BME280;9947;57.722;12.012;2023-07-09T05:42:20;101824.81;;;21.80;84.61
19600;BME280;9947;57.722;12.012;2023-07-09T05:44:47;101827.03;;;21.25;86.27
19600;BME280;9947;57.722;12.012;2023-07-09T05:47:14;101829.09;;;22.09;82.14
19600;BME280;9947;57.722;12.012;2023-07-09T05:52:32;101819.78;;;22.76;79.39
19600;BME280;9947;57.722;12.012;2023-07-09T05:55:00;101817.41;;;22.98;74.31
19600;BME280;9947;57.722;12.012;2023-07-09T05:57:28;101812.22;;;23.11;73.13
19600;BME280;9947;57.722;12.012;2023-07-09T05:59:55;101813.47;;;23.17;70.64
19600;BME280;9947;57.722;12.012;2023-07-09T06:02:22;101818.75;;;23.59;68.02
19600;BME280;9947;57.722;12.012;2023-07-09T06:04:53;101817.75;;;23.99;64.51
19600;BME280;9947;57.722;12.012;2023-07-09T06:07:21;101820.75;;;24.28;63.29
19600;BME280;9947;57.722;12.012;2023-07-09T06:09:50;101817.97;;;24.28;64.03
19600;BME280;9947;57.722;12.012;2023-07-09T06:12:17;101816.66;;;24.70;61.35
19600;BME280;9947;57.722;12.012;2023-07-09T06:14:45;101812.59;;;24.58;58.94
19600;BME280;9947;57.722;12.012;2023-07-09T06:17:16;101815.38;;;24.27;59.14
19600;BME280;9947;57.722;12.012;2023-07-09T06:19:44;101806.22;;;25.26;56.30
19600;BME280;9947;57.722;12.012;2023-07-09T06:22:12;101805.50;;;25.24;56.72
19600;BME280;9947;57.722;12.012;2023-07-09T06:27:10;101812.72;;;24.03;60.58
19600;BME280;9947;57.722;12.012;2023-07-09T06:32:07;101812.66;;;24.50;61.89
19600;BME280;9947;57.722;12.012;2023-07-09T06:37:02;101814.22;;;24.13;64.07
19600;BME280;9947;57.722;12.012;2023-07-09T06:41:58;101812.38;;;25.13;56.89
19600;BME280;9947;57.722;12.012;2023-07-09T06:44:29;101813.81;;;25.24;56.87
19600;BME280;9947;57.722;12.012;2023-07-09T06:46:56;101817.72;;;24.46;57.89
19600;BME280;9947;57.722;12.012;2023-07-09T06:49:23;101814.75;;;24.71;56.72
19600;BME280;9947;57.722;12.012;2023-07-09T06:51:53;101817.94;;;23.18;64.86
19600;BME280;9947;57.722;12.012;2023-07-09T06:54:20;101812.75;;;23.06;63.64
19600;BME280;9947;57.722;12.012;2023-07-09T06:56:50;101809.66;;;23.18;63.22
19600;BME280;9947;57.722;12.012;2023-07-09T06:59:17;101814.97;;;22.04;72.80
19600;BME280;9947;57.722;12.012;2023-07-09T07:01:45;101808.81;;;23.01;76.56
19600;BME280;9947;57.722;12.012;2023-07-09T07:04:13;101815.13;;;23.50;64.70
19600;BME280;9947;57.722;12.012;2023-07-09T07:06:41;101807.84;;;23.74;72.19
19600;BME280;9947;57.722;12.012;2023-07-09T07:09:09;101814.47;;;23.24;66.71
19600;BME280;9947;57.722;12.012;2023-07-09T07:11:52;101817.00;;;23.42;59.26
19600;BME280;9947;57.722;12.012;2023-07-09T07:14:19;101811.50;;;23.33;57.67
19600;BME280;9947;57.722;12.012;2023-07-09T07:16:48;101806.03;;;23.01;58.37
19600;BME280;9947;57.722;12.012;2023-07-09T07:19:16;101806.72;;;23.27;55.15
19600;BME280;9947;57.722;12.012;2023-07-09T07:21:44;101809.97;;;23.31;51.36
19600;BME280;9947;57.722;12.012;2023-07-09T07:24:11;101817.91;;;23.42;51.23
19600;BME280;9947;57.722;12.012;2023-07-09T07:26:43;101811.03;;;23.22;56.06
19600;BME280;9947;57.722;12.012;2023-07-09T07:29:10;101803.13;;;22.94;59.49
19600;BME280;9947;57.722;12.012;2023-07-09T07:34:05;101807.81;;;22.35;56.61
19600;BME280;9947;57.722;12.012;2023-07-09T07:38:58;101813.72;;;22.57;57.05
19600;BME280;9947;57.722;12.012;2023-07-09T07:41:26;101814.75;;;22.56;56.81
19600;BME280;9947;57.722;12.012;2023-07-09T07:43:53;101807.19;;;22.58;57.36
19600;BME280;9947;57.722;12.012;2023-07-09T07:46:21;101807.56;;;22.87;57.29
19600;BME280;9947;57.722;12.012;2023-07-09T07:48:50;101804.78;;;22.63;55.68
19600;BME280;9947;57.722;12.012;2023-07-09T07:51:19;101805.63;;;22.47;55.87
19600;BME280;9947;57.722;12.012;2023-07-09T07:53:47;101797.03;;;22.74;55.93
19600;BME280;9947;57.722;12.012;2023-07-09T07:56:15;101793.59;;;22.64;57.07
19600;BME280;9947;57.722;12.012;2023-07-09T07:58:43;101791.38;;;22.68;55.98
19600;BME280;9947;57.722;12.012;2023-07-09T08:01:11;101794.00;;;22.94;55.97
19600;BME280;9947;57.722;12.012;2023-07-09T08:06:04;101792.72;;;22.48;55.57
19600;BME280;9947;57.722;12.012;2023-07-09T08:11:02;101798.28;;;23.04;56.08
19600;BME280;9947;57.722;12.012;2023-07-09T08:15:58;101796.19;;;23.15;66.25
19600;BME280;9947;57.722;12.012;2023-07-09T08:18:25;101789.13;;;22.88;58.24
19600;BME280;9947;57.722;12.012;2023-07-09T08:20:52;101787.06;;;23.22;56.75
19600;BME280;9947;57.722;12.012;2023-07-09T08:23:19;101789.63;;;23.32;54.48
19600;BME280;9947;57.722;12.012;2023-07-09T08:25:52;101795.28;;;23.38;54.59
19600;BME280;9947;57.722;12.012;2023-07-09T08:28:23;101792.00;;;23.59;54.83
19600;BME280;9947;57.722;12.012;2023-07-09T08:30:52;101786.56;;;22.86;54.86
19600;BME280;9947;57.722;12.012;2023-07-09T08:33:20;101788.81;;;22.99;57.17
19600;BME280;9947;57.722;12.012;2023-07-09T08:35:50;101779.06;;;23.52;54.24
19600;BME280;9947;57.722;12.012;2023-07-09T08:38:18;101792.97;;;23.83;56.59
19600;BME280;9947;57.722;12.012;2023-07-09T08:43:17;101776.13;;;23.53;52.84
19600;BME280;9947;57.722;12.012;2023-07-09T08:46:01;101779.72;;;23.70;51.19
19600;BME280;9947;57.722;12.012;2023-07-09T08:48:34;101783.00;;;23.74;51.53
19600;BME280;9947;57.722;12.012;2023-07-09T08:51:08;101783.72;;;23.59;51.70
19600;BME280;9947;57.722;12.012;2023-07-09T08:56:08;101782.63;;;23.77;54.58
19600;BME280;9947;57.722;12.012;2023-07-09T08:58:36;101780.91;;;23.67;53.57
19600;BME280;9947;57.722;12.012;2023-07-09T09:01:17;101785.16;;;23.94;52.72
19600;BME280;9947;57.722;12.012;2023-07-09T09:03:48;101781.34;;;23.95;51.46
19600;BME280;9947;57.722;12.012;2023-07-09T09:06:17;101786.41;;;24.15;51.60
19600;BME280;9947;57.722;12.012;2023-07-09T09:09:02;101781.56;;;24.17;52.78
19600;BME280;9947;57.722;12.012;2023-07-09T09:14:01;101784.84;;;24.20;53.00
19600;BME280;9947;57.722;12.012;2023-07-09T09:16:33;101782.66;;;24.39;52.27
19600;BME280;9947;57.722;12.012;2023-07-09T09:19:02;101780.00;;;23.83;50.58
19600;BME280;9947;57.722;12.012;2023-07-09T09:21:37;101780.91;;;23.76;52.02
19600;BME280;9947;57.722;12.012;2023-07-09T09:24:14;101777.72;;;23.95;53.29
19600;BME280;9947;57.722;12.012;2023-07-09T09:26:42;101781.34;;;24.26;52.37
19600;BME280;9947;57.722;12.012;2023-07-09T09:29:11;101783.34;;;24.10;51.46
19600;BME280;9947;57.722;12.012;2023-07-09T09:31:41;101790.41;;;24.12;53.58
19600;BME280;9947;57.722;12.012;2023-07-09T09:34:18;101790.81;;;24.01;56.39
19600;BME280;9947;57.722;12.012;2023-07-09T09:36:47;101785.84;;;23.88;62.02
19600;BME280;9947;57.722;12.012;2023-07-09T09:39:14;101787.47;;;23.75;67.37
19600;BME280;9947;57.722;12.012;2023-07-09T09:44:19;101792.41;;;23.95;71.22
19600;BME280;9947;57.722;12.012;2023-07-09T09:46:50;101795.16;;;23.87;74.07
19600;BME280;9947;57.722;12.012;2023-07-09T09:49:17;101797.91;;;23.95;75.47
19600;BME280;9947;57.722;12.012;2023-07-09T09:51:46;101794.34;;;23.79;71.53
19600;BME280;9947;57.722;12.012;2023-07-09T09:54:17;101795.72;;;23.83;70.35
19600;BME280;9947;57.722;12.012;2023-07-09T09:56:44;101794.72;;;23.67;72.27
19600;BME280;9947;57.722;12.012;2023-07-09T09:59:21;101791.88;;;23.92;70.43
19600;BME280;9947;57.722;12.012;2023-07-09T10:01:58;101798.75;;;23.57;69.39
19600;BME280;9947;57.722;12.012;2023-07-09T10:04:26;101795.72;;;23.83;69.30
19600;BME280;9947;57.722;12.012;2023-07-09T10:06:56;101793.63;;;23.85;68.77
19600;BME280;9947;57.722;12.012;2023-07-09T10:09:40;101798.22;;;23.45;71.11
19600;BME280;9947;57.722;12.012;2023-07-09T10:12:29;101799.91;;;23.62;75.50
19600;BME280;9947;57.722;12.012;2023-07-09T10:15:05;101798.69;;;23.73;74.68
19600;BME280;9947;57.722;12.012;2023-07-09T10:20:07;101787.16;;;23.61;79.37
19600;BME280;9947;57.722;12.012;2023-07-09T10:25:10;101798.72;;;23.41;79.40
19600;BME280;9947;57.722;12.012;2023-07-09T10:27:53;101785.13;;;23.39;76.23
19600;BME280;9947;57.722;12.012;2023-07-09T10:30:35;101803.75;;;23.37;81.08
19600;BME280;9947;57.722;12.012;2023-07-09T10:33:09;101790.19;;;23.19;84.71
19600;BME280;9947;57.722;12.012;2023-07-09T10:35:48;101797.56;;;23.27;85.19
19600;BME280;9947;57.722;12.012;2023-07-09T10:38:32;101796.56;;;23.20;84.68
19600;BME280;9947;57.722;12.012;2023-07-09T10:41:09;101787.91;;;23.31;83.97
19600;BME280;9947;57.722;12.012;2023-07-09T10:46:09;101783.03;;;23.57;81.41
19600;BME280;9947;57.722;12.012;2023-07-09T10:51:16;101789.91;;;23.70;79.82
19600;BME280;9947;57.722;12.012;2023-07-09T10:53:46;101788.97;;;23.85;77.06
19600;BME280;9947;57.722;12.012;2023-07-09T10:56:17;101788.25;;;23.91;77.50
19600;BME280;9947;57.722;12.012;2023-07-09T10:58:53;101785.16;;;23.94;78.51
19600;BME280;9947;57.722;12.012;2023-07-09T11:01:28;101786.09;;;24.10;77.62
19600;BME280;9947;57.722;12.012;2023-07-09T11:04:01;101785.19;;;24.17;72.78
19600;BME280;9947;57.722;12.012;2023-07-09T11:06:36;101786.78;;;24.12;71.00
19600;BME280;9947;57.722;12.012;2023-07-09T11:09:11;101780.25;;;24.05;70.32
19600;BME280;9947;57.722;12.012;2023-07-09T11:14:16;101773.63;;;24.14;73.04
19600;BME280;9947;57.722;12.012;2023-07-09T11:16:47;101774.97;;;24.26;69.76
19600;BME280;9947;57.722;12.012;2023-07-09T11:19:18;101772.44;;;24.47;69.04
19600;BME280;9947;57.722;12.012;2023-07-09T11:22:03;101770.16;;;24.51;65.03
19600;BME280;9947;57.722;12.012;2023-07-09T11:24:33;101766.06;;;24.47;69.29
19600;BME280;9947;57.722;12.012;2023-07-09T11:27:03;101764.69;;;24.43;65.59
19600;BME280;9947;57.722;12.012;2023-07-09T11:29:46;101766.53;;;24.50;66.47
19600;BME280;9947;57.722;12.012;2023-07-09T11:32:23;101763.97;;;24.49;63.43
19600;BME280;9947;57.722;12.012;2023-07-09T11:34:50;101759.22;;;24.57;63.55
19600;BME280;9947;57.722;12.012;2023-07-09T11:37:23;101756.38;;;24.43;66.82
19600;BME280;9947;57.722;12.012;2023-07-09T11:39:53;101757.81;;;24.39;68.34
19600;BME280;9947;57.722;12.012;2023-07-09T11:42:30;101755.53;;;24.42;65.80
19600;BME280;9947;57.722;12.012;2023-07-09T11:45:06;101756.44;;;24.35;62.27
19600;BME280;9947;57.722;12.012;2023-07-09T11:50:01;101755.91;;;24.39;60.77
19600;BME280;9947;57.722;12.012;2023-07-09T11:52:34;101753.69;;;24.35;61.89
19600;BME280;9947;57.722;12.012;2023-07-09T11:55:19;101757.69;;;24.55;61.89
19600;BME280;9947;57.722;12.012;2023-07-09T11:57:48;101749.47;;;24.47;63.86
19600;BME280;9947;57.722;12.012;2023-07-09T12:00:15;101749.56;;;24.31;61.43
19600;BME280;9947;57.722;12.012;2023-07-09T12:02:47;101754.28;;;24.45;63.24
19600;BME280;9947;57.722;12.012;2023-07-09T12:05:19;101738.56;;;24.45;61.07
19600;BME280;9947;57.722;12.012;2023-07-09T12:07:49;101744.34;;;24.58;61.17
19600;BME280;9947;57.722;12.012;2023-07-09T12:10:20;101742.38;;;24.67;60.82
19600;BME280;9947;57.722;12.012;2023-07-09T12:15:21;101738.22;;;24.48;61.87
19600;BME280;9947;57.722;12.012;2023-07-09T12:17:55;101731.69;;;24.41;60.48
19600;BME280;9947;57.722;12.012;2023-07-09T12:20:24;101735.13;;;24.43;64.28
19600;BME280;9947;57.722;12.012;2023-07-09T12:22:56;101735.41;;;24.25;65.40
19600;BME280;9947;57.722;12.012;2023-07-09T12:25:25;101726.09;;;24.26;65.53
19600;BME280;9947;57.722;12.012;2023-07-09T12:27:53;101727.22;;;24.40;65.28
19600;BME280;9947;57.722;12.012;2023-07-09T12:30:21;101716.47;;;24.45;64.63
19600;BME280;9947;57.722;12.012;2023-07-09T12:35:28;101720.03;;;24.54;64.56
19600;BME280;9947;57.722;12.012;2023-07-09T12:37:58;101720.34;;;24.59;63.51
19600;BME280;9947;57.722;12.012;2023-07-09T12:40:30;101708.34;;;24.67;63.91
19600;BME280;9947;57.722;12.012;2023-07-09T12:42:58;101716.81;;;24.65;60.39
19600;BME280;9947;57.722;12.012;2023-07-09T12:45:27;101719.38;;;24.52;59.87
19600;BME280;9947;57.722;12.012;2023-07-09T12:47:58;101714.03;;;24.50;61.78
19600;BME280;9947;57.722;12.012;2023-07-09T12:50:31;101711.69;;;24.39;60.62
19600;BME280;9947;57.722;12.012;2023-07-09T12:53:08;101713.16;;;24.50;61.75
19600;BME280;9947;57.722;12.012;2023-07-09T12:58:08;101715.56;;;24.30;62.29
19600;BME280;9947;57.722;12.012;2023-07-09T13:03:12;101700.72;;;24.46;61.69
19600;BME280;9947;57.722;12.012;2023-07-09T13:05:51;101706.78;;;24.49;62.29
19600;BME280;9947;57.722;12.012;2023-07-09T13:08:27;101704.88;;;24.50;60.73
19600;BME280;9947;57.722;12.012;2023-07-09T13:10:56;101698.16;;;24.44;58.27
19600;BME280;9947;57.722;12.012;2023-07-09T13:13:24;101699.66;;;24.32;61.31
19600;BME280;9947;57.722;12.012;2023-07-09T13:15:54;101697.47;;;24.42;60.94
19600;BME280;9947;57.722;12.012;2023-07-09T13:18:25;101701.25;;;24.49;58.01
19600;BME280;9947;57.722;12.012;2023-07-09T13:20:54;101696.97;;;24.47;60.87
19600;BME280;9947;57.722;12.012;2023-07-09T13:23:26;101693.38;;;24.38;62.23
19600;BME280;9947;57.722;12.012;2023-07-09T13:25:56;101703.38;;;24.39;61.45
19600;BME280;9947;57.722;12.012;2023-07-09T13:28:25;101697.97;;;24.46;61.70
19600;BME280;9947;57.722;12.012;2023-07-09T13:30:56;101696.97;;;24.47;60.41
19600;BME280;9947;57.722;12.012;2023-07-09T13:33:23;101696.25;;;24.45;60.37
19600;BME280;9947;57.722;12.012;2023-07-09T13:35:51;101694.72;;;24.42;58.44
19600;BME280;9947;57.722;12.012;2023-07-09T13:38:21;101699.72;;;24.47;57.99
19600;BME280;9947;57.722;12.012;2023-07-09T13:40:53;101688.78;;;24.68;58.28
19600;BME280;9947;57.722;12.012;2023-07-09T13:43:28;101695.06;;;24.62;56.73
19600;BME280;9947;57.722;12.012;2023-07-09T13:45:57;101699.25;;;24.58;56.83
19600;BME280;9947;57.722;12.012;2023-07-09T13:48:25;101691.44;;;24.47;58.18
19600;BME280;9947;57.722;12.012;2023-07-09T13:50:53;101684.84;;;24.48;55.60
19600;BME280;9947;57.722;12.012;2023-07-09T13:53:23;101681.44;;;24.60;55.28
19600;BME280;9947;57.722;12.012;2023-07-09T13:55:53;101678.78;;;24.67;56.98
19600;BME280;9947;57.722;12.012;2023-07-09T13:58:23;101684.03;;;24.62;56.57
19600;BME280;9947;57.722;12.012;2023-07-09T14:00:57;101681.88;;;24.72;56.79
19600;BME280;9947;57.722;12.012;2023-07-09T14:03:31;101683.69;;;24.80;59.84
19600;BME280;9947;57.722;12.012;2023-07-09T14:06:00;101677.97;;;24.81;58.17
19600;BME280;9947;57.722;12.012;2023-07-09T14:08:29;101669.00;;;24.79;59.90
19600;BME280;9947;57.722;12.012;2023-07-09T14:10:57;101664.38;;;24.72;60.98
19600;BME280;9947;57.722;12.012;2023-07-09T14:13:25;101659.31;;;24.60;61.49
19600;BME280;9947;57.722;12.012;2023-07-09T14:15:53;101664.75;;;24.54;63.88
19600;BME280;9947;57.722;12.012;2023-07-09T14:18:22;101664.13;;;24.44;61.92
19600;BME280;9947;57.722;12.012;2023-07-09T14:20:49;101660.09;;;24.32;62.68
19600;BME280;9947;57.722;12.012;2023-07-09T14:23:19;101651.69;;;24.48;64.51
19600;BME280;9947;57.722;12.012;2023-07-09T14:25:47;101649.22;;;24.53;63.99
19600;BME280;9947;57.722;12.012;2023-07-09T14:28:18;101655.03;;;24.58;65.28
19600;BME280;9947;57.722;12.012;2023-07-09T14:30:48;101643.50;;;24.54;64.23
19600;BME280;9947;57.722;12.012;2023-07-09T14:33:18;101644.25;;;24.63;64.64
19600;BME280;9947;57.722;12.012;2023-07-09T14:35:46;101637.31;;;24.67;62.95
19600;BME280;9947;57.722;12.012;2023-07-09T14:38:19;101629.69;;;24.69;60.37
19600;BME280;9947;57.722;12.012;2023-07-09T14:40:47;101637.78;;;24.71;60.97
19600;BME280;9947;57.722;12.012;2023-07-09T14:43:17;101630.84;;;24.75;61.43